createdAt,value
2023-03-24T12:12:51.535Z,16.78
2023-03-24T12:15:14.638Z,17.07
2023-03-24T12:16:07.777Z,17.62
2023-03-24T12:17:07.663Z,18.42
2023-03-24T12:25:28.932Z,17.36
2023-03-24T12:46:01.322Z,17.93
2023-03-24T12:49:48.769Z,17.79
2023-03-24T12:50:48.764Z,18.37
2023-03-24T12:51:48.740Z,18.81
2023-03-24T12:52:58.015Z,19.66
2023-03-24T12:53:48.733Z,20.05
2023-03-24T12:54:48.702Z,19.16
2023-03-24T12:55:49.015Z,18.87
2023-03-24T12:56:48.739Z,19.59
2023-03-24T12:57:48.638Z,20.11
2023-03-24T12:58:48.639Z,20.42
2023-03-24T12:59:48.627Z,20.50
2023-03-24T13:00:48.650Z,20.99
2023-03-24T13:01:48.612Z,20.14
2023-03-24T13:02:48.633Z,20.33
2023-03-24T13:03:48.581Z,19.68
2023-03-24T13:04:48.552Z,20.11
2023-03-24T13:05:48.714Z,20.98
2023-03-24T13:06:48.535Z,21.37
2023-03-24T13:07:48.521Z,21.10
2023-03-24T13:13:39.235Z,18.51
2023-03-24T13:14:39.228Z,18.81
2023-03-24T13:15:39.221Z,19.29
2023-03-24T13:16:39.252Z,19.83
2023-03-24T13:17:39.249Z,20.59
2023-03-24T13:18:39.180Z,21.21
2023-03-24T13:19:39.147Z,21.10
2023-03-24T13:20:39.128Z,20.69
2023-03-24T13:21:39.124Z,20.18
2023-03-24T13:22:39.152Z,20.29
2023-03-24T13:23:39.074Z,20.16
2023-03-24T13:24:39.097Z,20.67
2023-03-24T14:00:10.233Z,17.08
2023-03-24T14:01:10.223Z,17.22
2023-03-24T14:02:10.194Z,17.71
2023-03-24T14:03:10.265Z,17.49
2023-03-24T14:04:10.129Z,18.23
2023-03-24T14:05:10.133Z,18.90
